YPPF weather

Adelaide Parafield Airport
Adelaide, South Australia, Australia

Public forecast

Using degrees Celsius for public forecast. Weather courtesy of forecast.io.

METAR (pilot weather report)

Closest report is Adelaide International Airport, 10.4 nm (19.3 km) SSW. Retrieved 2017/06/22 19:30 UTC (25 minutes ago):

YPAD 221930Z 04007KT CAVOK 07/02 Q1018 NOSIG

TAF (pilot weather forecast)

Closest forecast is Adelaide International Airport, 10.4 nm (19.3 km) SSW. Retrieved 2017/06/22 18:00 UTC (2 hours ago):

TAF YPAD 221725Z 2218/2324 05006KT CAVOK FM230000 35012KT CAVOK FM230300 31010KT CAVOK FM230800 VRB05KT 9999 SCT025 SCT035